sensor_id;sensor_type;location;lat;lon;timestamp;pressure;altitude;pressure_sealevel;temperature;humidity
51239;BME280;38154;47.548;18.828;2023-02-17T00:01:23;99640.78;;;0.15;100.00
51239;BME280;38154;47.548;18.828;2023-02-17T00:03:51;99632.56;;;0.21;100.00
51239;BME280;38154;47.548;18.828;2023-02-17T00:06:19;99633.59;;;0.25;100.00
51239;BME280;38154;47.548;18.828;2023-02-17T00:08:46;99628.81;;;0.31;100.00
51239;BME280;38154;47.548;18.828;2023-02-17T00:11:12;99632.19;;;0.30;100.00
51239;BME280;38154;47.548;18.828;2023-02-17T00:13:38;99634.03;;;0.32;100.00
51239;BME280;38154;47.548;18.828;2023-02-17T00:16:06;99627.50;;;0.23;100.00
51239;BME280;38154;47.548;18.828;2023-02-17T00:18:32;99630.53;;;0.15;100.00
51239;BME280;38154;47.548;18.828;2023-02-17T00:20:58;99636.44;;;0.14;100.00
51239;BME280;38154;47.548;18.828;2023-02-17T00:23:24;99625.50;;;0.17;100.00
51239;BME280;38154;47.548;18.828;2023-02-17T00:25:50;99620.87;;;0.26;100.00
51239;BME280;38154;47.548;18.828;2023-02-17T00:28:16;99626.63;;;0.22;100.00
51239;BME280;38154;47.548;18.828;2023-02-17T00:30:42;99622.56;;;0.26;100.00
51239;BME280;38154;47.548;18.828;2023-02-17T00:33:07;99633.00;;;0.29;100.00
51239;BME280;38154;47.548;18.828;2023-02-17T00:35:38;99635.00;;;0.34;100.00
51239;BME280;38154;47.548;18.828;2023-02-17T00:38:04;99630.84;;;0.36;100.00
51239;BME280;38154;47.548;18.828;2023-02-17T00:40:29;99635.34;;;0.41;100.00
51239;BME280;38154;47.548;18.828;2023-02-17T00:42:55;99643.06;;;0.41;100.00
51239;BME280;38154;47.548;18.828;2023-02-17T00:45:21;99638.16;;;0.45;100.00
51239;BME280;38154;47.548;18.828;2023-02-17T00:47:47;99642.66;;;0.49;100.00
51239;BME280;38154;47.548;18.828;2023-02-17T00:50:13;99642.75;;;0.51;100.00
51239;BME280;38154;47.548;18.828;2023-02-17T00:52:39;99635.94;;;0.51;100.00
51239;BME280;38154;47.548;18.828;2023-02-17T00:55:05;99649.41;;;0.47;100.00
51239;BME280;38154;47.548;18.828;2023-02-17T00:57:31;99644.97;;;0.45;100.00
51239;BME280;38154;47.548;18.828;2023-02-17T00:59:57;99635.78;;;0.33;100.00
51239;BME280;38154;47.548;18.828;2023-02-17T01:02:23;99638.22;;;0.30;100.00
51239;BME280;38154;47.548;18.828;2023-02-17T01:04:49;99635.56;;;0.29;100.00
51239;BME280;38154;47.548;18.828;2023-02-17T01:07:15;99638.31;;;0.32;100.00
51239;BME280;38154;47.548;18.828;2023-02-17T01:09:41;99641.38;;;0.26;100.00
51239;BME280;38154;47.548;18.828;2023-02-17T01:12:06;99635.56;;;0.29;100.00
51239;BME280;38154;47.548;18.828;2023-02-17T01:14:32;99635.87;;;0.35;100.00
51239;BME280;38154;47.548;18.828;2023-02-17T01:16:58;99630.13;;;0.39;100.00
51239;BME280;38154;47.548;18.828;2023-02-17T01:19:24;99634.00;;;0.47;100.00
51239;BME280;38154;47.548;18.828;2023-02-17T01:21:50;99632.56;;;0.52;100.00
51239;BME280;38154;47.548;18.828;2023-02-17T01:24:16;99620.78;;;0.56;100.00
51239;BME280;38154;47.548;18.828;2023-02-17T01:26:42;99621.28;;;0.65;100.00
51239;BME280;38154;47.548;18.828;2023-02-17T01:29:08;99619.94;;;0.72;100.00
51239;BME280;38154;47.548;18.828;2023-02-17T01:31:34;99619.94;;;0.72;100.00
51239;BME280;38154;47.548;18.828;2023-02-17T01:34:01;99621.97;;;0.78;100.00
51239;BME280;38154;47.548;18.828;2023-02-17T01:36:28;99622.28;;;1.00;100.00
51239;BME280;38154;47.548;18.828;2023-02-17T01:38:54;99619.16;;;1.22;100.00
51239;BME280;38154;47.548;18.828;2023-02-17T01:41:22;99617.84;;;1.47;100.00
51239;BME280;38154;47.548;18.828;2023-02-17T01:46:32;99614.66;;;1.85;100.00
51239;BME280;38154;47.548;18.828;2023-02-17T01:48:58;99610.59;;;1.91;100.00
51239;BME280;38154;47.548;18.828;2023-02-17T01:51:28;99611.31;;;2.04;100.00
51239;BME280;38154;47.548;18.828;2023-02-17T01:54:06;99610.03;;;2.14;100.00
51239;BME280;38154;47.548;18.828;2023-02-17T01:56:36;99603.63;;;2.06;100.00
51239;BME280;38154;47.548;18.828;2023-02-17T01:59:11;99604.97;;;2.16;100.00
51239;BME280;38154;47.548;18.828;2023-02-17T02:01:40;99610.94;;;2.15;100.00
51239;BME280;38154;47.548;18.828;2023-02-17T02:04:06;99601.59;;;1.99;100.00
51239;BME280;38154;47.548;18.828;2023-02-17T02:06:35;99594.69;;;1.98;100.00
51239;BME280;38154;47.548;18.828;2023-02-17T02:09:06;99595.09;;;1.89;100.00
51239;BME280;38154;47.548;18.828;2023-02-17T02:11:33;99591.16;;;1.78;100.00
51239;BME280;38154;47.548;18.828;2023-02-17T02:13:59;99595.31;;;1.76;100.00
51239;BME280;38154;47.548;18.828;2023-02-17T02:16:37;99599.41;;;1.72;100.00
51239;BME280;38154;47.548;18.828;2023-02-17T02:22:17;99586.59;;;1.56;100.00
51239;BME280;38154;47.548;18.828;2023-02-17T02:27:28;99582.25;;;1.04;100.00
51239;BME280;38154;47.548;18.828;2023-02-17T02:35:49;99572.03;;;0.56;100.00
51239;BME280;38154;47.548;18.828;2023-02-17T02:38:39;99580.84;;;0.45;100.00
51239;BME280;38154;47.548;18.828;2023-02-17T02:41:14;99571.53;;;0.30;100.00
51239;BME280;38154;47.548;18.828;2023-02-17T02:43:42;99575.00;;;0.16;100.00
51239;BME280;38154;47.548;18.828;2023-02-17T02:46:08;99587.47;;;0.10;100.00
51239;BME280;38154;47.548;18.828;2023-02-17T02:48:34;99587.38;;;0.08;100.00
51239;BME280;38154;47.548;18.828;2023-02-17T02:56:25;99569.78;;;0.14;100.00
51239;BME280;38154;47.548;18.828;2023-02-17T03:04:25;99554.62;;;-0.12;100.00
51239;BME280;38154;47.548;18.828;2023-02-17T03:07:04;99572.16;;;-0.20;100.00
51239;BME280;38154;47.548;18.828;2023-02-17T03:09:33;99571.97;;;-0.23;100.00
51239;BME280;38154;47.548;18.828;2023-02-17T03:11:59;99580.06;;;-0.30;100.00
51239;BME280;38154;47.548;18.828;2023-02-17T03:14:25;99581.94;;;-0.28;100.00
51239;BME280;38154;47.548;18.828;2023-02-17T03:16:52;99578.59;;;-0.42;100.00
51239;BME280;38154;47.548;18.828;2023-02-17T03:19:21;99586.28;;;-0.57;100.00
51239;BME280;38154;47.548;18.828;2023-02-17T03:24:33;99585.69;;;-0.81;100.00
51239;BME280;38154;47.548;18.828;2023-02-17T03:26:59;99585.59;;;-0.82;100.00
51239;BME280;38154;47.548;18.828;2023-02-17T03:29:25;99601.59;;;-0.86;100.00
51239;BME280;38154;47.548;18.828;2023-02-17T03:31:50;99602.03;;;-0.94;100.00
51239;BME280;38154;47.548;18.828;2023-02-17T03:34:16;99598.66;;;-0.93;100.00
51239;BME280;38154;47.548;18.828;2023-02-17T03:36:42;99594.34;;;-0.94;100.00
51239;BME280;38154;47.548;18.828;2023-02-17T03:39:08;99594.69;;;-0.87;100.00
51239;BME280;38154;47.548;18.828;2023-02-17T03:41:34;99593.72;;;-0.89;100.00
51239;BME280;38154;47.548;18.828;2023-02-17T03:44:00;99590.09;;;-0.93;100.00
51239;BME280;38154;47.548;18.828;2023-02-17T03:46:26;99596.56;;;-0.85;100.00
51239;BME280;38154;47.548;18.828;2023-02-17T03:48:52;99586.84;;;-0.76;100.00
51239;BME280;38154;47.548;18.828;2023-02-17T03:51:21;99592.06;;;-0.74;100.00
51239;BME280;38154;47.548;18.828;2023-02-17T03:53:48;99587.41;;;-0.66;100.00
51239;BME280;38154;47.548;18.828;2023-02-17T03:56:14;99590.22;;;-0.77;100.00
51239;BME280;38154;47.548;18.828;2023-02-17T03:58:41;99573.19;;;-0.76;100.00
51239;BME280;38154;47.548;18.828;2023-02-17T04:01:09;99575.34;;;-0.82;100.00
51239;BME280;38154;47.548;18.828;2023-02-17T04:03:35;99581.00;;;-0.88;100.00
51239;BME280;38154;47.548;18.828;2023-02-17T04:06:02;99576.41;;;-0.94;100.00
51239;BME280;38154;47.548;18.828;2023-02-17T04:08:28;99570.31;;;-0.96;100.00
51239;BME280;38154;47.548;18.828;2023-02-17T04:10:55;99575.88;;;-0.88;100.00
51239;BME280;38154;47.548;18.828;2023-02-17T04:13:22;99578.72;;;-0.83;100.00
51239;BME280;38154;47.548;18.828;2023-02-17T04:15:48;99583.03;;;-0.82;100.00
51239;BME280;38154;47.548;18.828;2023-02-17T04:18:15;99579.63;;;-0.68;100.00
51239;BME280;38154;47.548;18.828;2023-02-17T04:20:41;99567.97;;;-0.63;100.00
51239;BME280;38154;47.548;18.828;2023-02-17T04:23:08;99564.28;;;-0.68;100.00
51239;BME280;38154;47.548;18.828;2023-02-17T04:25:35;99562.75;;;-0.79;100.00
51239;BME280;38154;47.548;18.828;2023-02-17T04:28:03;99565.31;;;-0.79;100.00
51239;BME280;38154;47.548;18.828;2023-02-17T04:30:29;99567.34;;;-0.88;100.00
51239;BME280;38154;47.548;18.828;2023-02-17T04:32:55;99567.69;;;-0.97;100.00
51239;BME280;38154;47.548;18.828;2023-02-17T04:35:22;99569.78;;;-1.05;100.00
51239;BME280;38154;47.548;18.828;2023-02-17T04:37:48;99568.31;;;-1.15;100.00
51239;BME280;38154;47.548;18.828;2023-02-17T04:40:14;99570.16;;;-1.27;100.00
51239;BME280;38154;47.548;18.828;2023-02-17T04:42:40;99561.41;;;-1.31;100.00
51239;BME280;38154;47.548;18.828;2023-02-17T04:45:06;99568.19;;;-1.31;100.00
51239;BME280;38154;47.548;18.828;2023-02-17T04:47:32;99570.94;;;-1.28;100.00
51239;BME280;38154;47.548;18.828;2023-02-17T04:49:58;99563.62;;;-1.22;100.00
51239;BME280;38154;47.548;18.828;2023-02-17T04:52:24;99571.59;;;-1.17;100.00
51239;BME280;38154;47.548;18.828;2023-02-17T04:54:50;99563.50;;;-1.10;100.00
51239;BME280;38154;47.548;18.828;2023-02-17T04:57:16;99565.53;;;-1.04;100.00
51239;BME280;38154;47.548;18.828;2023-02-17T04:59:42;99569.44;;;-0.96;100.00
51239;BME280;38154;47.548;18.828;2023-02-17T05:02:08;99574.37;;;-0.84;100.00
51239;BME280;38154;47.548;18.828;2023-02-17T05:04:34;99577.91;;;-0.82;100.00
51239;BME280;38154;47.548;18.828;2023-02-17T05:07:00;99584.91;;;-0.80;100.00
51239;BME280;38154;47.548;18.828;2023-02-17T05:09:27;99583.88;;;-0.68;100.00
51239;BME280;38154;47.548;18.828;2023-02-17T05:11:52;99591.03;;;-0.63;100.00
51239;BME280;38154;47.548;18.828;2023-02-17T05:14:18;99591.31;;;-0.58;100.00
51239;BME280;38154;47.548;18.828;2023-02-17T05:16:44;99593.34;;;-0.52;100.00
51239;BME280;38154;47.548;18.828;2023-02-17T05:19:10;99590.16;;;-0.48;100.00
51239;BME280;38154;47.548;18.828;2023-02-17T05:21:37;99586.78;;;-0.47;100.00
51239;BME280;38154;47.548;18.828;2023-02-17T05:24:03;99585.75;;;-0.36;100.00
51239;BME280;38154;47.548;18.828;2023-02-17T05:26:29;99568.09;;;-0.31;100.00
51239;BME280;38154;47.548;18.828;2023-02-17T05:28:55;99576.91;;;-0.26;100.00
51239;BME280;38154;47.548;18.828;2023-02-17T05:31:21;99578.31;;;-0.02;100.00
51239;BME280;38154;47.548;18.828;2023-02-17T05:33:47;99577.38;;;0.13;100.00
51239;BME280;38154;47.548;18.828;2023-02-17T05:36:13;99565.94;;;0.23;100.00
51239;BME280;38154;47.548;18.828;2023-02-17T05:38:39;99574.53;;;0.23;100.00
51239;BME280;38154;47.548;18.828;2023-02-17T05:41:05;99566.91;;;0.25;100.00
51239;BME280;38154;47.548;18.828;2023-02-17T05:43:31;99567.88;;;0.27;100.00
51239;BME280;38154;47.548;18.828;2023-02-17T05:46:04;99576.75;;;0.32;100.00
51239;BME280;38154;47.548;18.828;2023-02-17T05:48:30;99570.41;;;0.42;100.00
51239;BME280;38154;47.548;18.828;2023-02-17T05:50:56;99564.81;;;0.49;100.00
51239;BME280;38154;47.548;18.828;2023-02-17T05:53:22;99566.16;;;0.59;100.00
51239;BME280;38154;47.548;18.828;2023-02-17T05:55:47;99551.97;;;0.65;100.00
51239;BME280;38154;47.548;18.828;2023-02-17T05:58:14;99562.84;;;0.76;100.00
51239;BME280;38154;47.548;18.828;2023-02-17T06:00:39;99575.09;;;0.82;100.00
51239;BME280;38154;47.548;18.828;2023-02-17T06:03:05;99566.28;;;0.77;100.00
51239;BME280;38154;47.548;18.828;2023-02-17T06:05:31;99566.94;;;0.72;100.00
51239;BME280;38154;47.548;18.828;2023-02-17T06:07:57;99568.06;;;0.78;100.00
51239;BME280;38154;47.548;18.828;2023-02-17T06:10:23;99576.88;;;0.83;100.00
51239;BME280;38154;47.548;18.828;2023-02-17T06:12:49;99573.91;;;0.75;100.00
51239;BME280;38154;47.548;18.828;2023-02-17T06:15:15;99580.06;;;0.79;100.00
51239;BME280;38154;47.548;18.828;2023-02-17T06:17:41;99579.28;;;0.80;100.00
51239;BME280;38154;47.548;18.828;2023-02-17T06:20:07;99583.59;;;0.97;100.00
51239;BME280;38154;47.548;18.828;2023-02-17T06:22:34;99593.81;;;1.12;100.00
51239;BME280;38154;47.548;18.828;2023-02-17T06:25:00;99591.16;;;1.27;100.00
51239;BME280;38154;47.548;18.828;2023-02-17T06:27:26;99590.34;;;1.28;100.00
51239;BME280;38154;47.548;18.828;2023-02-17T06:29:51;99597.81;;;1.40;100.00
51239;BME280;38154;47.548;18.828;2023-02-17T06:32:17;99593.44;;;1.55;100.00
51239;BME280;38154;47.548;18.828;2023-02-17T06:34:43;99602.50;;;1.65;100.00
51239;BME280;38154;47.548;18.828;2023-02-17T06:37:09;99603.69;;;1.72;100.00
51239;BME280;38154;47.548;18.828;2023-02-17T06:39:35;99610.97;;;1.80;100.00
51239;BME280;38154;47.548;18.828;2023-02-17T06:42:02;99605.59;;;1.76;100.00
51239;BME280;38154;47.548;18.828;2023-02-17T06:44:28;99616.84;;;1.78;100.00
51239;BME280;38154;47.548;18.828;2023-02-17T06:46:54;99609.25;;;1.81;100.00
51239;BME280;38154;47.548;18.828;2023-02-17T06:49:20;99610.25;;;2.01;100.00
51239;BME280;38154;47.548;18.828;2023-02-17T06:51:46;99610.03;;;2.32;100.00
51239;BME280;38154;47.548;18.828;2023-02-17T06:54:12;99603.78;;;2.45;100.00
51239;BME280;38154;47.548;18.828;2023-02-17T06:56:38;99600.69;;;2.52;100.00
51239;BME280;38154;47.548;18.828;2023-02-17T06:59:04;99602.63;;;2.76;100.00
51239;BME280;38154;47.548;18.828;2023-02-17T07:01:30;99609.50;;;3.14;100.00
51239;BME280;38154;47.548;18.828;2023-02-17T07:03:56;99607.59;;;3.49;100.00
51239;BME280;38154;47.548;18.828;2023-02-17T07:06:23;99597.75;;;3.81;100.00
51239;BME280;38154;47.548;18.828;2023-02-17T07:08:49;99588.66;;;4.12;100.00
51239;BME280;38154;47.548;18.828;2023-02-17T07:11:16;99594.84;;;4.59;100.00
51239;BME280;38154;47.548;18.828;2023-02-17T07:13:42;99603.38;;;5.04;100.00
51239;BME280;38154;47.548;18.828;2023-02-17T07:16:11;99606.22;;;5.35;99.63
51239;BME280;38154;47.548;18.828;2023-02-17T07:18:37;99600.25;;;5.36;100.00
51239;BME280;38154;47.548;18.828;2023-02-17T07:21:05;99603.59;;;5.34;100.00
51239;BME280;38154;47.548;18.828;2023-02-17T07:23:32;99603.88;;;5.42;100.00
51239;BME280;38154;47.548;18.828;2023-02-17T07:26:09;99602.50;;;5.53;100.00
51239;BME280;38154;47.548;18.828;2023-02-17T07:28:37;99596.94;;;5.66;100.00
51239;BME280;38154;47.548;18.828;2023-02-17T07:31:03;99583.75;;;5.84;100.00
51239;BME280;38154;47.548;18.828;2023-02-17T07:33:29;99588.47;;;5.96;100.00
51239;BME280;38154;47.548;18.828;2023-02-17T07:35:55;99582.16;;;6.13;100.00
51239;BME280;38154;47.548;18.828;2023-02-17T07:38:21;99585.06;;;6.24;99.55
51239;BME280;38154;47.548;18.828;2023-02-17T07:40:47;99586.44;;;6.69;100.00
51239;BME280;38154;47.548;18.828;2023-02-17T07:43:13;99588.56;;;6.82;92.90
51239;BME280;38154;47.548;18.828;2023-02-17T07:45:38;99593.25;;;6.94;88.71
51239;BME280;38154;47.548;18.828;2023-02-17T07:48:04;99594.25;;;6.99;83.79
51239;BME280;38154;47.548;18.828;2023-02-17T07:50:30;99584.34;;;7.16;81.30
51239;BME280;38154;47.548;18.828;2023-02-17T07:52:56;99581.25;;;7.30;80.03
51239;BME280;38154;47.548;18.828;2023-02-17T07:55:22;99582.25;;;7.35;79.70
51239;BME280;38154;47.548;18.828;2023-02-17T07:57:48;99577.47;;;7.50;84.98
51239;BME280;38154;47.548;18.828;2023-02-17T08:00:15;99583.41;;;7.78;77.79
51239;BME280;38154;47.548;18.828;2023-02-17T08:02:41;99590.22;;;8.08;77.45
51239;BME280;38154;47.548;18.828;2023-02-17T08:05:07;99588.09;;;8.29;81.24
51239;BME280;38154;47.548;18.828;2023-02-17T08:07:33;99581.37;;;8.76;76.01
51239;BME280;38154;47.548;18.828;2023-02-17T08:09:59;99588.22;;;9.13;74.14
51239;BME280;38154;47.548;18.828;2023-02-17T08:12:43;99587.91;;;9.40;68.98
51239;BME280;38154;47.548;18.828;2023-02-17T08:15:24;99586.28;;;10.49;66.88
51239;BME280;38154;47.548;18.828;2023-02-17T08:17:50;99599.50;;;10.62;63.47
51239;BME280;38154;47.548;18.828;2023-02-17T08:20:17;99600.00;;;10.36;65.97
51239;BME280;38154;47.548;18.828;2023-02-17T08:22:43;99614.19;;;10.55;66.09
51239;BME280;38154;47.548;18.828;2023-02-17T08:25:09;99605.66;;;10.67;63.33
51239;BME280;38154;47.548;18.828;2023-02-17T08:27:35;99606.97;;;10.38;62.80
51239;BME280;38154;47.548;18.828;2023-02-17T08:30:02;99611.84;;;10.18;62.32
51239;BME280;38154;47.548;18.828;2023-02-17T08:32:28;99610.50;;;9.92;63.66
51239;BME280;38154;47.548;18.828;2023-02-17T08:34:55;99612.63;;;10.13;64.00
51239;BME280;38154;47.548;18.828;2023-02-17T08:37:21;99611.81;;;10.17;64.92
51239;BME280;38154;47.548;18.828;2023-02-17T08:39:47;99610.22;;;9.75;63.46
51239;BME280;38154;47.548;18.828;2023-02-17T08:42:13;99603.75;;;9.53;64.67
51239;BME280;38154;47.548;18.828;2023-02-17T08:44:39;99600.03;;;9.40;67.89
51239;BME280;38154;47.548;18.828;2023-02-17T08:47:05;99604.06;;;9.70;65.50
51239;BME280;38154;47.548;18.828;2023-02-17T08:49:31;99599.88;;;9.79;65.75
51239;BME280;38154;47.548;18.828;2023-02-17T08:51:58;99596.75;;;9.99;64.97
51239;BME280;38154;47.548;18.828;2023-02-17T08:54:24;99598.09;;;10.29;64.57
51239;BME280;38154;47.548;18.828;2023-02-17T08:56:50;99603.78;;;10.56;61.44
51239;BME280;38154;47.548;18.828;2023-02-17T08:59:16;99604.25;;;10.92;61.60
51239;BME280;38154;47.548;18.828;2023-02-17T09:01:42;99612.78;;;11.49;58.59
51239;BME280;38154;47.548;18.828;2023-02-17T09:04:11;99603.50;;;11.79;58.35
51239;BME280;38154;47.548;18.828;2023-02-17T09:09:10;99606.19;;;11.85;55.67
51239;BME280;38154;47.548;18.828;2023-02-17T09:11:37;99610.56;;;11.89;55.82
51239;BME280;38154;47.548;18.828;2023-02-17T09:14:04;99611.56;;;11.97;54.79
51239;BME280;38154;47.548;18.828;2023-02-17T09:16:30;99616.50;;;12.75;54.35
51239;BME280;38154;47.548;18.828;2023-02-17T09:18:56;99607.38;;;14.16;50.82
51239;BME280;38154;47.548;18.828;2023-02-17T09:21:22;99610.84;;;13.94;48.46
51239;BME280;38154;47.548;18.828;2023-02-17T09:23:49;99604.50;;;13.14;50.54
51239;BME280;38154;47.548;18.828;2023-02-17T09:26:16;99598.97;;;12.65;51.09
51239;BME280;38154;47.548;18.828;2023-02-17T09:28:43;99599.47;;;12.13;53.54
51239;BME280;38154;47.548;18.828;2023-02-17T09:31:22;99613.94;;;11.76;55.54
51239;BME280;38154;47.548;18.828;2023-02-17T09:33:49;99611.03;;;11.46;55.44
51239;BME280;38154;47.548;18.828;2023-02-17T09:36:16;99613.59;;;11.43;57.10
51239;BME280;38154;47.548;18.828;2023-02-17T09:38:44;99609.16;;;11.35;56.34
51239;BME280;38154;47.548;18.828;2023-02-17T09:43:41;99598.66;;;11.30;55.57
51239;BME280;38154;47.548;18.828;2023-02-17T09:46:32;99594.88;;;11.06;55.30
51239;BME280;38154;47.548;18.828;2023-02-17T09:49:11;99601.03;;;10.49;57.30
51239;BME280;38154;47.548;18.828;2023-02-17T09:51:43;99586.59;;;10.14;59.51
51239;BME280;38154;47.548;18.828;2023-02-17T09:56:47;99595.09;;;10.02;59.08
51239;BME280;38154;47.548;18.828;2023-02-17T09:59:24;99584.78;;;10.12;60.38
51239;BME280;38154;47.548;18.828;2023-02-17T10:01:52;99583.09;;;10.15;59.02
51239;BME280;38154;47.548;18.828;2023-02-17T10:04:23;99583.00;;;10.08;58.95
51239;BME280;38154;47.548;18.828;2023-02-17T10:07:19;99575.06;;;10.01;60.13
51239;BME280;38154;47.548;18.828;2023-02-17T10:09:49;99574.25;;;10.02;59.66
51239;BME280;38154;47.548;18.828;2023-02-17T10:12:20;99569.91;;;10.05;61.10
51239;BME280;38154;47.548;18.828;2023-02-17T10:14:52;99562.62;;;9.83;61.66
51239;BME280;38154;47.548;18.828;2023-02-17T10:20:14;99556.34;;;10.24;59.81
51239;BME280;38154;47.548;18.828;2023-02-17T10:22:45;99553.94;;;10.36;61.01
51239;BME280;38154;47.548;18.828;2023-02-17T10:25:14;99549.09;;;10.63;61.28
51239;BME280;38154;47.548;18.828;2023-02-17T10:35:43;99560.13;;;11.10;58.90
51239;BME280;38154;47.548;18.828;2023-02-17T10:38:15;99549.59;;;11.04;59.78
51239;BME280;38154;47.548;18.828;2023-02-17T10:40:44;99542.72;;;11.09;59.07
51239;BME280;38154;47.548;18.828;2023-02-17T10:43:15;99545.47;;;11.22;58.90
51239;BME280;38154;47.548;18.828;2023-02-17T10:45:45;99545.44;;;11.20;58.47
51239;BME280;38154;47.548;18.828;2023-02-17T10:48:51;99545.31;;;11.11;59.51
51239;BME280;38154;47.548;18.828;2023-02-17T10:51:21;99546.56;;;10.69;60.33
51239;BME280;38154;47.548;18.828;2023-02-17T10:54:01;99539.03;;;10.29;63.19
51239;BME280;38154;47.548;18.828;2023-02-17T10:56:54;99537.72;;;9.99;64.86
51239;BME280;38154;47.548;18.828;2023-02-17T11:02:12;99524.31;;;9.76;65.91
51239;BME280;38154;47.548;18.828;2023-02-17T11:04:45;99523.53;;;9.83;65.64
51239;BME280;38154;47.548;18.828;2023-02-17T11:07:13;99527.84;;;9.80;65.48
51239;BME280;38154;47.548;18.828;2023-02-17T11:09:45;99525.09;;;9.71;66.96
51239;BME280;38154;47.548;18.828;2023-02-17T11:12:31;99523.88;;;9.52;67.47
51239;BME280;38154;47.548;18.828;2023-02-17T11:14:58;99522.75;;;9.36;69.64
51239;BME280;38154;47.548;18.828;2023-02-17T11:19:58;99505.87;;;9.64;67.58
51239;BME280;38154;47.548;18.828;2023-02-17T11:22:40;99505.16;;;9.73;68.39
51239;BME280;38154;47.548;18.828;2023-02-17T11:25:27;99492.16;;;9.74;69.40
51239;BME280;38154;47.548;18.828;2023-02-17T11:27:56;99491.50;;;9.88;68.60
51239;BME280;38154;47.548;18.828;2023-02-17T11:30:23;99489.25;;;10.11;65.77
51239;BME280;38154;47.548;18.828;2023-02-17T11:32:50;99485.06;;;10.24;65.97
51239;BME280;38154;47.548;18.828;2023-02-17T11:35:43;99480.31;;;10.54;63.77
51239;BME280;38154;47.548;18.828;2023-02-17T11:38:15;99482.28;;;10.75;62.83
51239;BME280;38154;47.548;18.828;2023-02-17T11:41:01;99482.47;;;10.88;63.68
51239;BME280;38154;47.548;18.828;2023-02-17T11:43:28;99469.28;;;10.77;62.98
51239;BME280;38154;47.548;18.828;2023-02-17T11:46:17;99481.31;;;10.67;63.54
51239;BME280;38154;47.548;18.828;2023-02-17T11:51:40;99473.81;;;10.93;62.25
51239;BME280;38154;47.548;18.828;2023-02-17T11:56:58;99469.34;;;10.83;64.99
51239;BME280;38154;47.548;18.828;2023-02-17T12:02:43;99469.66;;;10.37;68.18
51239;BME280;38154;47.548;18.828;2023-02-17T12:07:41;99463.31;;;10.21;71.64
51239;BME280;38154;47.548;18.828;2023-02-17T12:13:17;99465.38;;;10.41;70.78
51239;BME280;38154;47.548;18.828;2023-02-17T12:23:51;99446.59;;;10.70;70.71
51239;BME280;38154;47.548;18.828;2023-02-17T12:26:37;99451.53;;;10.47;70.76
51239;BME280;38154;47.548;18.828;2023-02-17T12:29:48;99448.81;;;10.37;72.79
51239;BME280;38154;47.548;18.828;2023-02-17T12:35:03;99441.72;;;11.02;67.90
51239;BME280;38154;47.548;18.828;2023-02-17T12:37:47;99437.69;;;11.35;67.11
51239;BME280;38154;47.548;18.828;2023-02-17T12:42:57;99427.53;;;11.70;67.22
51239;BME280;38154;47.548;18.828;2023-02-17T12:45:35;99427.59;;;11.80;66.57
51239;BME280;38154;47.548;18.828;2023-02-17T12:48:09;99439.59;;;11.56;66.44
51239;BME280;38154;47.548;18.828;2023-02-17T12:50:49;99435.13;;;11.41;69.13
51239;BME280;38154;47.548;18.828;2023-02-17T12:53:25;99440.44;;;11.54;69.90
51239;BME280;38154;47.548;18.828;2023-02-17T12:56:02;99438.53;;;11.34;70.49
51239;BME280;38154;47.548;18.828;2023-02-17T12:58:30;99422.81;;;11.25;72.50
51239;BME280;38154;47.548;18.828;2023-02-17T13:01:03;99430.44;;;11.05;75.80
51239;BME280;38154;47.548;18.828;2023-02-17T13:03:34;99434.59;;;10.84;79.14
51239;BME280;38154;47.548;18.828;2023-02-17T13:09:00;99432.31;;;10.38;87.23
51239;BME280;38154;47.548;18.828;2023-02-17T13:11:30;99428.41;;;10.10;93.16
51239;BME280;38154;47.548;18.828;2023-02-17T13:13:57;99414.03;;;9.74;99.04
51239;BME280;38154;47.548;18.828;2023-02-17T13:16:44;99420.06;;;9.73;100.00
51239;BME280;38154;47.548;18.828;2023-02-17T13:19:13;99422.03;;;9.88;97.49
51239;BME280;38154;47.548;18.828;2023-02-17T13:21:51;99417.75;;;9.93;100.00
51239;BME280;38154;47.548;18.828;2023-02-17T13:24:35;99423.94;;;10.00;100.00
51239;BME280;38154;47.548;18.828;2023-02-17T13:27:20;99417.00;;;10.02;100.00
51239;BME280;38154;47.548;18.828;2023-02-17T13:30:00;99418.69;;;9.97;100.00
51239;BME280;38154;47.548;18.828;2023-02-17T13:32:33;99405.66;;;9.97;96.42
51239;BME280;38154;47.548;18.828;2023-02-17T13:35:06;99397.97;;;10.06;97.97
51239;BME280;38154;47.548;18.828;2023-02-17T13:39:59;99390.25;;;10.15;96.89
51239;BME280;38154;47.548;18.828;2023-02-17T13:42:37;99393.06;;;10.29;98.25
51239;BME280;38154;47.548;18.828;2023-02-17T13:45:22;99381.94;;;10.41;96.12
51239;BME280;38154;47.548;18.828;2023-02-17T13:47:51;99378.53;;;10.47;97.26
51239;BME280;38154;47.548;18.828;2023-02-17T13:50:41;99388.12;;;10.49;96.47
51239;BME280;38154;47.548;18.828;2023-02-17T13:53:29;99375.06;;;10.48;92.97
51239;BME280;38154;47.548;18.828;2023-02-17T13:55:59;99379.47;;;10.55;92.87
51239;BME280;38154;47.548;18.828;2023-02-17T13:58:29;99376.84;;;10.52;94.64
51239;BME280;38154;47.548;18.828;2023-02-17T14:00:56;99375.87;;;10.44;94.46
51239;BME280;38154;47.548;18.828;2023-02-17T14:04:00;99368.94;;;10.43;95.28
51239;BME280;38154;47.548;18.828;2023-02-17T14:06:32;99363.72;;;10.43;93.27
51239;BME280;38154;47.548;18.828;2023-02-17T14:09:11;99366.34;;;10.44;94.10
51239;BME280;38154;47.548;18.828;2023-02-17T14:11:37;99361.91;;;10.38;97.22
51239;BME280;38154;47.548;18.828;2023-02-17T14:14:05;99365.34;;;10.33;98.58
51239;BME280;38154;47.548;18.828;2023-02-17T14:16:35;99357.53;;;10.34;98.99
51239;BME280;38154;47.548;18.828;2023-02-17T14:19:15;99359.38;;;10.43;99.05
51239;BME280;38154;47.548;18.828;2023-02-17T14:22:02;99355.00;;;10.44;96.32
51239;BME280;38154;47.548;18.828;2023-02-17T14:24:34;99357.56;;;10.37;98.41
51239;BME280;38154;47.548;18.828;2023-02-17T14:27:08;99356.56;;;10.29;98.88